Time;durP1;ratioP1;P1;durP2;ratioP2;P2;SDS_P1;SDS_P2;PMS_P1;PMS_P2;Temp;Humidity;BMP_temperature;BMP_pressure;BME280_temperature;BME280_humidity;BME280_pressure;Samples;Min_cycle;Max_cycle;Signal;HPM_P1;HPM_P2
2022/07/15 00:00:28;;;;;;;1.83;1.30;;;;;;;;;;5010180;28;20034;-56
2022/07/15 00:02:54;;;;;;;3.40;1.50;;;;;;;;;;5009420;28;20462;-55
2022/07/15 00:05:20;;;;;;;3.63;1.45;;;;;;;;;;5012447;28;20025;-56
2022/07/15 00:07:46;;;;;;;1.73;1.30;;;;;;;;;;5008390;28;20034;-56
2022/07/15 00:10:16;;;;;;;1.88;1.40;;;;;;;;;;5009911;28;20077;-56
2022/07/15 00:12:49;;;;;;;2.22;1.38;;;;;;;;;;5013295;28;20022;-56
2022/07/15 00:15:16;;;;;;;2.38;1.20;;;;;;;;;;5013018;28;20049;-56
2022/07/15 00:17:42;;;;;;;3.15;1.48;;;;;;;;;;5007587;28;20033;-51
2022/07/15 00:20:09;;;;;;;1.90;1.20;;;;;;;;;;5011352;28;20435;-57
2022/07/15 00:22:35;;;;;;;3.22;1.45;;;;;;;;;;5007313;28;20095;-56
2022/07/15 00:25:01;;;;;;;1.67;1.08;;;;;;;;;;5008486;28;20120;-55
2022/07/15 00:27:27;;;;;;;3.20;1.65;;;;;;;;;;5011187;28;20531;-56
2022/07/15 00:29:53;;;;;;;2.75;1.30;;;;;;;;;;4995075;28;20042;-55
2022/07/15 00:32:19;;;;;;;2.33;1.38;;;;;;;;;;5012591;28;20387;-55
2022/07/15 00:34:45;;;;;;;2.83;1.33;;;;;;;;;;5004495;28;20030;-55
2022/07/15 00:37:11;;;;;;;1.75;1.20;;;;;;;;;;5007079;28;20026;-51
2022/07/15 00:39:37;;;;;;;2.70;1.83;;;;;;;;;;5010627;28;20083;-58
2022/07/15 00:42:03;;;;;;;2.13;1.40;;;;;;;;;;5012509;28;20034;-57
2022/07/15 00:44:29;;;;;;;2.80;1.45;;;;;;;;;;5011867;28;20044;-56
2022/07/15 00:46:56;;;;;;;2.63;1.35;;;;;;;;;;5011103;28;20475;-56
2022/07/15 00:49:22;;;;;;;3.78;1.48;;;;;;;;;;5010198;28;20207;-56
2022/07/15 00:51:51;;;;;;;1.80;1.30;;;;;;;;;;5010170;28;20057;-56
2022/07/15 00:54:18;;;;;;;1.48;1.25;;;;;;;;;;5006676;28;20053;-57
2022/07/15 00:56:46;;;;;;;2.85;1.50;;;;;;;;;;5009108;28;20054;-55
2022/07/15 00:59:13;;;;;;;1.92;1.27;;;;;;;;;;5009138;28;20042;-55
2022/07/15 01:01:40;;;;;;;2.22;1.55;;;;;;;;;;5009835;28;20530;-56
2022/07/15 01:04:06;;;;;;;1.73;1.30;;;;;;;;;;5010232;28;20419;-56
2022/07/15 01:06:32;;;;;;;2.10;1.20;;;;;;;;;;5011815;28;20034;-55
2022/07/15 01:08:58;;;;;;;2.25;1.17;;;;;;;;;;5010424;28;20491;-54
2022/07/15 01:11:24;;;;;;;2.22;1.35;;;;;;;;;;5013348;28;20471;-57
2022/07/15 01:13:51;;;;;;;2.13;1.23;;;;;;;;;;5013703;28;20026;-56
2022/07/15 01:16:17;;;;;;;1.25;0.93;;;;;;;;;;4996608;28;20419;-56
2022/07/15 01:18:43;;;;;;;2.60;1.35;;;;;;;;;;5013664;28;20064;-56
2022/07/15 01:21:09;;;;;;;3.22;1.30;;;;;;;;;;5014068;28;20040;-54
2022/07/15 01:23:36;;;;;;;1.27;1.08;;;;;;;;;;5012518;28;20029;-54
2022/07/15 01:26:02;;;;;;;1.80;1.30;;;;;;;;;;5012847;28;20089;-54
2022/07/15 01:28:28;;;;;;;2.45;1.35;;;;;;;;;;5009114;28;20129;-53
2022/07/15 01:30:54;;;;;;;1.42;0.95;;;;;;;;;;5012289;28;20453;-52
2022/07/15 01:33:20;;;;;;;1.85;1.10;;;;;;;;;;5013849;28;20026;-54
2022/07/15 01:35:46;;;;;;;1.60;1.05;;;;;;;;;;5009886;28;20487;-52
2022/07/15 01:38:12;;;;;;;1.52;1.30;;;;;;;;;;5012872;28;20045;-56
2022/07/15 01:40:38;;;;;;;1.65;1.13;;;;;;;;;;5015001;28;20058;-55
2022/07/15 01:43:04;;;;;;;1.27;1.00;;;;;;;;;;5015415;28;20104;-55
2022/07/15 01:45:30;;;;;;;2.50;1.20;;;;;;;;;;5014015;28;20022;-57
2022/07/15 01:47:56;;;;;;;1.40;1.10;;;;;;;;;;5013392;28;20022;-56
2022/07/15 01:50:22;;;;;;;1.55;1.27;;;;;;;;;;5011891;28;20080;-55
2022/07/15 01:52:48;;;;;;;2.03;0.90;;;;;;;;;;5012944;28;20033;-56
2022/07/15 01:55:14;;;;;;;2.15;1.40;;;;;;;;;;5011658;28;20038;-56
2022/07/15 01:57:40;;;;;;;1.17;1.00;;;;;;;;;;5017452;28;20178;-54
2022/07/15 02:00:07;;;;;;;4.22;1.65;;;;;;;;;;5006246;28;20442;-56
2022/07/15 02:02:33;;;;;;;2.28;1.10;;;;;;;;;;5014391;28;20034;-56
2022/07/15 02:04:59;;;;;;;2.30;1.35;;;;;;;;;;5015041;28;20105;-56
2022/07/15 02:07:25;;;;;;;2.55;1.55;;;;;;;;;;5013427;28;20026;-49
2022/07/15 02:09:51;;;;;;;1.73;1.17;;;;;;;;;;5009611;28;20056;-56
2022/07/15 02:12:17;;;;;;;1.35;1.00;;;;;;;;;;5008917;28;20459;-57
2022/07/15 02:14:43;;;;;;;2.30;1.45;;;;;;;;;;5013985;28;20038;-57
2022/07/15 02:17:09;;;;;;;3.30;1.20;;;;;;;;;;5015165;28;20028;-56
2022/07/15 02:19:35;;;;;;;2.40;1.00;;;;;;;;;;5014115;28;20034;-57
2022/07/15 02:22:01;;;;;;;2.67;1.20;;;;;;;;;;5013938;28;20026;-56
2022/07/15 02:24:27;;;;;;;1.67;1.20;;;;;;;;;;5011266;28;20196;-57
2022/07/15 02:26:53;;;;;;;2.13;1.27;;;;;;;;;;5013629;28;20033;-56
2022/07/15 02:29:19;;;;;;;1.70;1.23;;;;;;;;;;5005822;28;20114;-56
2022/07/15 02:31:45;;;;;;;1.00;0.90;;;;;;;;;;5014996;28;20509;-56
2022/07/15 02:34:11;;;;;;;1.13;1.00;;;;;;;;;;5006809;28;20030;-55
2022/07/15 02:36:38;;;;;;;1.17;0.88;;;;;;;;;;5012979;28;20034;-55
2022/07/15 02:39:04;;;;;;;1.40;1.20;;;;;;;;;;5014655;28;20551;-54
2022/07/15 02:41:30;;;;;;;2.72;1.55;;;;;;;;;;5014362;28;20026;-54
2022/07/15 02:43:59;;;;;;;1.75;1.10;;;;;;;;;;5013357;28;20378;-55
2022/07/15 02:46:25;;;;;;;1.50;1.20;;;;;;;;;;5011617;28;20426;-54
2022/07/15 02:48:51;;;;;;;2.28;1.10;;;;;;;;;;5008006;28;20095;-53
2022/07/15 02:51:17;;;;;;;1.88;1.08;;;;;;;;;;5002585;28;20046;-55
2022/07/15 02:53:43;;;;;;;2.67;1.10;;;;;;;;;;4995065;28;20387;-54
2022/07/15 02:56:09;;;;;;;1.77;1.13;;;;;;;;;;4990876;28;20026;-54
2022/07/15 02:58:35;;;;;;;2.63;1.30;;;;;;;;;;4994485;28;20068;-55
2022/07/15 03:01:01;;;;;;;1.35;1.10;;;;;;;;;;4994717;28;20034;-56
2022/07/15 03:03:30;;;;;;;1.15;0.90;;;;;;;;;;4994624;28;20019;-50
2022/07/15 03:06:00;;;;;;;2.15;1.08;;;;;;;;;;4990148;28;20069;-55
2022/07/15 03:08:26;;;;;;;1.60;1.25;;;;;;;;;;4993304;28;20041;-55
2022/07/15 03:10:52;;;;;;;1.98;1.00;;;;;;;;;;4994670;28;20080;-56
2022/07/15 03:13:18;;;;;;;1.73;1.17;;;;;;;;;;4990366;28;20026;-56
2022/07/15 03:15:44;;;;;;;1.60;0.95;;;;;;;;;;4993094;28;20387;-56
2022/07/15 03:18:10;;;;;;;1.73;1.00;;;;;;;;;;4992984;28;20018;-55
2022/07/15 03:20:36;;;;;;;2.00;1.20;;;;;;;;;;4993149;28;20038;-56
2022/07/15 03:23:02;;;;;;;2.47;1.20;;;;;;;;;;4991199;28;20030;-56
2022/07/15 03:25:28;;;;;;;1.42;1.10;;;;;;;;;;4992737;28;20068;-54
2022/07/15 03:27:54;;;;;;;1.65;0.93;;;;;;;;;;4992602;28;20468;-55
2022/07/15 03:30:22;;;;;;;2.15;1.17;;;;;;;;;;4992480;28;20038;-55
2022/07/15 03:32:48;;;;;;;2.50;1.40;;;;;;;;;;4992027;28;20035;-55
2022/07/15 03:35:14;;;;;;;2.22;1.23;;;;;;;;;;4994249;28;20045;-54
2022/07/15 03:37:40;;;;;;;1.63;1.00;;;;;;;;;;4992704;28;20030;-52
2022/07/15 03:40:06;;;;;;;2.53;1.15;;;;;;;;;;4992799;28;20030;-54
2022/07/15 03:42:32;;;;;;;1.13;0.90;;;;;;;;;;4990729;28;20037;-56
2022/07/15 03:44:58;;;;;;;1.33;1.13;;;;;;;;;;4990342;28;20038;-55
2022/07/15 03:47:24;;;;;;;1.98;0.90;;;;;;;;;;4987987;28;20042;-56
2022/07/15 03:49:50;;;;;;;1.85;1.30;;;;;;;;;;4993647;28;20042;-54
2022/07/15 03:52:16;;;;;;;2.47;1.52;;;;;;;;;;5011399;28;20052;-55
2022/07/15 03:54:42;;;;;;;1.73;1.00;;;;;;;;;;5008440;28;20037;-52
2022/07/15 03:57:08;;;;;;;1.15;0.80;;;;;;;;;;5011613;28;20058;-56
2022/07/15 03:59:34;;;;;;;1.38;1.20;;;;;;;;;;5010873;28;20072;-56
2022/07/15 04:02:00;;;;;;;1.70;1.13;;;;;;;;;;5011028;28;20054;-56
2022/07/15 04:04:26;;;;;;;1.42;0.80;;;;;;;;;;5012964;28;20025;-56
2022/07/15 04:06:52;;;;;;;2.03;1.20;;;;;;;;;;5013174;28;20028;-55
2022/07/15 04:09:18;;;;;;;1.85;1.08;;;;;;;;;;5011035;28;20037;-56
2022/07/15 04:11:44;;;;;;;1.40;0.98;;;;;;;;;;5010711;28;20108;-56
2022/07/15 04:14:11;;;;;;;2.17;1.00;;;;;;;;;;5010632;28;20028;-54
2022/07/15 04:16:37;;;;;;;1.67;1.08;;;;;;;;;;5010935;28;20048;-54
2022/07/15 04:19:04;;;;;;;2.20;1.35;;;;;;;;;;5007225;28;20026;-56
2022/07/15 04:21:30;;;;;;;1.20;0.98;;;;;;;;;;5005165;28;20030;-55
2022/07/15 04:23:56;;;;;;;2.72;1.30;;;;;;;;;;5012512;28;20555;-55
2022/07/15 04:26:22;;;;;;;1.77;1.00;;;;;;;;;;5008044;28;20104;-55
2022/07/15 04:28:48;;;;;;;2.22;1.27;;;;;;;;;;5010932;28;20021;-55
2022/07/15 04:31:15;;;;;;;2.17;1.80;;;;;;;;;;5010587;28;20018;-54
2022/07/15 04:33:41;;;;;;;3.38;1.23;;;;;;;;;;5010372;28;20104;-51
2022/07/15 04:36:07;;;;;;;2.10;1.27;;;;;;;;;;5006538;28;20025;-58
2022/07/15 04:38:33;;;;;;;3.45;1.60;;;;;;;;;;5011785;28;20446;-54
2022/07/15 04:40:59;;;;;;;3.72;1.10;;;;;;;;;;5010679;28;20108;-56
2022/07/15 04:43:25;;;;;;;2.78;1.10;;;;;;;;;;5009863;28;20032;-56
2022/07/15 04:45:51;;;;;;;2.35;1.00;;;;;;;;;;5011708;28;20385;-56
2022/07/15 04:51:02;;;;;;;1.52;1.10;;;;;;;;;;5001518;28;20061;-56
2022/07/15 04:53:28;;;;;;;2.50;1.23;;;;;;;;;;4992097;28;20026;-56
2022/07/15 04:55:54;;;;;;;2.45;0.98;;;;;;;;;;4992742;28;20059;-52
2022/07/15 04:58:20;;;;;;;1.67;1.17;;;;;;;;;;4987955;28;20190;-54
2022/07/15 05:00:47;;;;;;;1.15;0.80;;;;;;;;;;4989790;28;20071;-55
2022/07/15 05:03:13;;;;;;;0.90;0.80;;;;;;;;;;4990710;28;20045;-54
2022/07/15 05:05:39;;;;;;;1.38;0.90;;;;;;;;;;4992043;28;20018;-53
2022/07/15 05:08:06;;;;;;;1.70;1.20;;;;;;;;;;4992175;28;20448;-54
2022/07/15 05:10:32;;;;;;;2.50;1.58;;;;;;;;;;4988369;28;20407;-55
2022/07/15 05:12:58;;;;;;;2.42;1.23;;;;;;;;;;4989454;28;20050;-55
2022/07/15 05:15:24;;;;;;;1.70;1.23;;;;;;;;;;4992749;28;20019;-54
2022/07/15 05:17:50;;;;;;;1.55;1.15;;;;;;;;;;4990041;28;20030;-55
2022/07/15 05:20:16;;;;;;;0.93;0.82;;;;;;;;;;4989322;28;20058;-54
2022/07/15 05:22:42;;;;;;;1.55;1.13;;;;;;;;;;4991712;28;20074;-56
2022/07/15 05:25:09;;;;;;;2.42;1.40;;;;;;;;;;4988328;28;20387;-55
2022/07/15 05:27:35;;;;;;;6.70;2.30;;;;;;;;;;4986837;28;20388;-53
2022/07/15 05:30:01;;;;;;;4.70;1.92;;;;;;;;;;4989583;28;20030;-55
2022/07/15 05:32:27;;;;;;;6.50;2.92;;;;;;;;;;4992374;28;20021;-56
2022/07/15 05:34:54;;;;;;;5.95;1.80;;;;;;;;;;4992363;28;20224;-56
2022/07/15 05:37:20;;;;;;;4.03;1.90;;;;;;;;;;4991947;28;20360;-56
2022/07/15 05:39:55;;;;;;;11.35;3.60;;;;;;;;;;4990056;28;20018;-54
2022/07/15 05:42:21;;;;;;;3.42;2.17;;;;;;;;;;4988718;28;20418;-55
2022/07/15 05:44:47;;;;;;;7.20;2.22;;;;;;;;;;4989394;28;20054;-54
2022/07/15 05:47:14;;;;;;;4.13;2.10;;;;;;;;;;4989989;28;20038;-56
2022/07/15 05:49:41;;;;;;;7.78;2.88;;;;;;;;;;4992361;28;20058;-54
2022/07/15 05:52:07;;;;;;;4.57;1.90;;;;;;;;;;5008364;28;20073;-55
2022/07/15 05:54:33;;;;;;;5.10;1.92;;;;;;;;;;5010430;28;20385;-53
2022/07/15 05:56:59;;;;;;;3.80;1.90;;;;;;;;;;5009912;28;20101;-55
2022/07/15 05:59:25;;;;;;;5.53;1.83;;;;;;;;;;5012845;28;20045;-57
2022/07/15 06:01:51;;;;;;;3.20;1.60;;;;;;;;;;5014336;28;20459;-56
2022/07/15 06:04:17;;;;;;;7.50;1.80;;;;;;;;;;5010995;28;20022;-57
2022/07/15 06:06:43;;;;;;;2.40;1.45;;;;;;;;;;5012416;28;20376;-55
2022/07/15 06:09:09;;;;;;;6.60;2.38;;;;;;;;;;5010629;28;20042;-56
2022/07/15 06:11:35;;;;;;;3.08;1.42;;;;;;;;;;5014184;28;20103;-57
2022/07/15 06:14:03;;;;;;;2.85;1.45;;;;;;;;;;5012512;28;20030;-57
2022/07/15 06:16:29;;;;;;;7.28;1.65;;;;;;;;;;5013758;28;20040;-56
2022/07/15 06:18:55;;;;;;;3.40;2.10;;;;;;;;;;5015115;28;20034;-56
2022/07/15 06:21:21;;;;;;;4.85;1.65;;;;;;;;;;5014301;28;20029;-58
2022/07/15 06:23:47;;;;;;;8.27;2.53;;;;;;;;;;4994546;28;20447;-57
2022/07/15 06:26:13;;;;;;;3.33;1.70;;;;;;;;;;5013788;28;20029;-57
2022/07/15 06:28:39;;;;;;;3.15;1.65;;;;;;;;;;5013879;28;20525;-58
2022/07/15 06:31:05;;;;;;;4.18;1.73;;;;;;;;;;5011804;28;20046;-58
2022/07/15 06:33:31;;;;;;;6.13;1.88;;;;;;;;;;5020737;28;20018;-59
2022/07/15 06:35:57;;;;;;;3.00;1.70;;;;;;;;;;5014295;28;20482;-57
2022/07/15 06:38:23;;;;;;;5.80;2.17;;;;;;;;;;5011811;28;20026;-57
2022/07/15 06:40:49;;;;;;;3.17;1.52;;;;;;;;;;5012478;28;20386;-57
2022/07/15 06:43:15;;;;;;;2.58;1.30;;;;;;;;;;5009700;28;20033;-58
2022/07/15 06:45:41;;;;;;;6.43;1.58;;;;;;;;;;5013482;28;20014;-54
2022/07/15 06:48:07;;;;;;;2.15;1.38;;;;;;;;;;5013702;28;20390;-58
2022/07/15 06:50:34;;;;;;;5.50;1.90;;;;;;;;;;5014276;28;20046;-57
2022/07/15 06:53:02;;;;;;;2.25;1.20;;;;;;;;;;5005051;28;20479;-58
2022/07/15 06:55:28;;;;;;;2.50;1.20;;;;;;;;;;5014961;28;20132;-58
2022/07/15 06:57:54;;;;;;;3.17;1.10;;;;;;;;;;5012088;28;20705;-57
2022/07/15 07:00:20;;;;;;;4.25;2.08;;;;;;;;;;5010301;28;20030;-58
2022/07/15 07:02:46;;;;;;;3.33;1.30;;;;;;;;;;5008435;28;20116;-55
2022/07/15 07:05:12;;;;;;;7.78;1.52;;;;;;;;;;5008715;28;20068;-57
2022/07/15 07:07:38;;;;;;;4.90;1.88;;;;;;;;;;5011272;28;20435;-58
2022/07/15 07:10:04;;;;;;;4.85;1.50;;;;;;;;;;5012813;28;20399;-58
2022/07/15 07:12:30;;;;;;;3.88;1.60;;;;;;;;;;5010884;28;20100;-58
2022/07/15 07:14:56;;;;;;;5.10;1.50;;;;;;;;;;5012809;28;20033;-57
2022/07/15 07:17:22;;;;;;;4.35;1.50;;;;;;;;;;5012745;28;20463;-58
2022/07/15 07:19:48;;;;;;;12.95;2.72;;;;;;;;;;5011819;28;20034;-58
2022/07/15 07:22:14;;;;;;;5.70;1.48;;;;;;;;;;5010448;28;20364;-56
2022/07/15 07:24:40;;;;;;;4.13;1.52;;;;;;;;;;5011578;28;20026;-58
2022/07/15 07:27:06;;;;;;;2.28;1.30;;;;;;;;;;5012218;28;20033;-57
2022/07/15 07:29:33;;;;;;;2.70;1.30;;;;;;;;;;5012476;28;20121;-52
2022/07/15 07:31:59;;;;;;;3.20;1.27;;;;;;;;;;5012193;28;20041;-58
2022/07/15 07:34:25;;;;;;;3.75;1.48;;;;;;;;;;5009837;28;20026;-58
2022/07/15 07:36:51;;;;;;;4.90;1.38;;;;;;;;;;5011753;28;20022;-58
2022/07/15 07:39:17;;;;;;;4.65;1.48;;;;;;;;;;5010618;28;20026;-56
2022/07/15 07:41:43;;;;;;;3.63;1.48;;;;;;;;;;5010502;28;20025;-57
2022/07/15 07:44:09;;;;;;;2.92;1.10;;;;;;;;;;5011905;28;20033;-56
2022/07/15 07:46:35;;;;;;;4.13;1.13;;;;;;;;;;5011331;28;20022;-49
2022/07/15 07:49:01;;;;;;;4.93;1.52;;;;;;;;;;5009465;28;20041;-58
2022/07/15 07:51:27;;;;;;;2.75;1.25;;;;;;;;;;5011394;28;20065;-57
2022/07/15 07:53:53;;;;;;;2.63;1.00;;;;;;;;;;5008716;28;20737;-54
2022/07/15 07:56:20;;;;;;;2.92;1.30;;;;;;;;;;5010879;28;20029;-58
2022/07/15 07:58:46;;;;;;;2.65;1.20;;;;;;;;;;5015149;28;20423;-58
2022/07/15 08:01:12;;;;;;;2.20;1.23;;;;;;;;;;5011989;28;20057;-58
2022/07/15 08:03:38;;;;;;;4.35;1.02;;;;;;;;;;5010781;28;20076;-50
2022/07/15 08:06:04;;;;;;;3.22;1.30;;;;;;;;;;5011974;28;20029;-58
2022/07/15 08:08:30;;;;;;;3.65;1.13;;;;;;;;;;5010934;28;20049;-56
2022/07/15 08:10:57;;;;;;;3.08;1.05;;;;;;;;;;4993558;28;20552;-58
2022/07/15 08:13:25;;;;;;;3.25;0.85;;;;;;;;;;5012069;28;20069;-58
2022/07/15 08:15:53;;;;;;;2.75;1.50;;;;;;;;;;5009775;28;20515;-58
2022/07/15 08:18:20;;;;;;;2.42;1.23;;;;;;;;;;5009978;28;20053;-58
2022/07/15 08:20:45;;;;;;;2.65;1.10;;;;;;;;;;5010962;28;20080;-58
2022/07/15 08:23:12;;;;;;;2.63;1.05;;;;;;;;;;5011187;28;20025;-58
2022/07/15 08:25:38;;;;;;;7.60;1.25;;;;;;;;;;5007814;28;20540;-57
2022/07/15 08:28:05;;;;;;;1.80;1.10;;;;;;;;;;5011518;28;20022;-56
2022/07/15 08:30:32;;;;;;;2.35;1.35;;;;;;;;;;5011372;28;20458;-58
2022/07/15 08:32:58;;;;;;;2.60;1.58;;;;;;;;;;5008431;28;20025;-57
2022/07/15 08:35:25;;;;;;;1.75;1.00;;;;;;;;;;5011497;28;20581;-57
2022/07/15 08:37:51;;;;;;;1.90;1.00;;;;;;;;;;5010091;28;20124;-57
2022/07/15 08:40:18;;;;;;;1.23;1.00;;;;;;;;;;5010635;28;20030;-56
2022/07/15 08:42:46;;;;;;;2.70;1.13;;;;;;;;;;5009661;28;20026;-57
2022/07/15 08:45:12;;;;;;;1.67;1.13;;;;;;;;;;5011559;28;20116;-57
2022/07/15 08:47:40;;;;;;;1.90;1.00;;;;;;;;;;5010577;28;20032;-57
2022/07/15 08:50:06;;;;;;;3.25;1.10;;;;;;;;;;5009913;28;20048;-55
2022/07/15 08:52:33;;;;;;;1.83;1.13;;;;;;;;;;4991668;28;20026;-59
2022/07/15 08:55:00;;;;;;;3.08;1.00;;;;;;;;;;4973034;28;20027;-58
2022/07/15 08:57:26;;;;;;;3.72;1.00;;;;;;;;;;4991908;28;20050;-58
2022/07/15 08:59:52;;;;;;;2.63;0.98;;;;;;;;;;4987818;28;20038;-57
2022/07/15 09:02:22;;;;;;;1.63;0.90;;;;;;;;;;4989148;28;20022;-57
2022/07/15 09:05:07;;;;;;;1.83;1.00;;;;;;;;;;4989544;28;20117;-56
2022/07/15 09:07:50;;;;;;;1.20;0.88;;;;;;;;;;4987384;28;20471;-58
2022/07/15 09:10:16;;;;;;;1.67;1.20;;;;;;;;;;4991448;28;20034;-56
2022/07/15 09:12:42;;;;;;;1.13;0.80;;;;;;;;;;4989237;28;20068;-58
2022/07/15 09:15:08;;;;;;;2.08;1.00;;;;;;;;;;4992022;28;20034;-57
2022/07/15 09:17:35;;;;;;;1.38;1.05;;;;;;;;;;4989553;28;20522;-57
2022/07/15 09:20:13;;;;;;;1.20;0.90;;;;;;;;;;4988077;28;20034;-58
2022/07/15 09:22:48;;;;;;;3.83;0.98;;;;;;;;;;4990982;28;20053;-51
2022/07/15 09:25:14;;;;;;;1.38;0.82;;;;;;;;;;4991329;28;20031;-58
2022/07/15 09:27:41;;;;;;;3.30;1.20;;;;;;;;;;4990873;28;20073;-52
2022/07/15 09:36:02;;;;;;;1.17;0.77;;;;;;;;;;4988751;28;20037;-57
2022/07/15 09:38:32;;;;;;;1.52;1.02;;;;;;;;;;4995456;28;20025;-58
2022/07/15 09:40:59;;;;;;;1.83;0.90;;;;;;;;;;4994446;28;20030;-57
2022/07/15 09:43:25;;;;;;;3.30;1.65;;;;;;;;;;4995128;28;20399;-58
2022/07/15 09:46:00;;;;;;;2.05;0.93;;;;;;;;;;4993904;28;20476;-58
2022/07/15 09:48:31;;;;;;;1.63;0.80;;;;;;;;;;4994776;28;20042;-58
2022/07/15 09:50:58;;;;;;;1.63;0.93;;;;;;;;;;5001381;28;20837;-53
2022/07/15 09:53:25;;;;;;;2.50;0.95;;;;;;;;;;5011364;28;20364;-58
2022/07/15 09:55:51;;;;;;;3.28;0.90;;;;;;;;;;5013940;28;20478;-58
2022/07/15 09:58:20;;;;;;;2.55;1.10;;;;;;;;;;5014297;28;20041;-58
2022/07/15 10:00:46;;;;;;;4.07;1.00;;;;;;;;;;5013965;28;20037;-58
2022/07/15 10:03:13;;;;;;;4.40;1.70;;;;;;;;;;5008679;28;20525;-57
2022/07/15 10:05:40;;;;;;;1.48;0.95;;;;;;;;;;4996976;28;20347;-51
2022/07/15 10:08:06;;;;;;;1.10;0.82;;;;;;;;;;5012143;28;20045;-57
2022/07/15 10:10:33;;;;;;;2.30;0.95;;;;;;;;;;5013218;28;20099;-58
2022/07/15 10:13:06;;;;;;;2.05;1.00;;;;;;;;;;5013286;28;20026;-58
2022/07/15 10:15:45;;;;;;;11.50;1.02;;;;;;;;;;5013874;28;20080;-57
2022/07/15 10:18:11;;;;;;;4.20;1.20;;;;;;;;;;5011053;28;20112;-57
2022/07/15 10:20:51;;;;;;;1.63;0.80;;;;;;;;;;5013913;28;20110;-58
2022/07/15 10:23:17;;;;;;;1.65;0.90;;;;;;;;;;4995605;28;22066;-58
2022/07/15 10:25:49;;;;;;;1.60;1.05;;;;;;;;;;5012128;28;20089;-57
2022/07/15 10:28:33;;;;;;;2.33;1.40;;;;;;;;;;5013193;28;20050;-58
2022/07/15 10:31:13;;;;;;;2.92;0.90;;;;;;;;;;5012781;28;20092;-57
2022/07/15 10:33:39;;;;;;;1.27;0.90;;;;;;;;;;5013028;28;20413;-52
2022/07/15 10:36:05;;;;;;;2.45;1.00;;;;;;;;;;5008061;28;20057;-56
2022/07/15 10:38:33;;;;;;;1.90;1.00;;;;;;;;;;5013067;28;20084;-57
2022/07/15 10:40:59;;;;;;;4.22;1.42;;;;;;;;;;5013808;28;20050;-58
2022/07/15 10:43:41;;;;;;;1.65;1.27;;;;;;;;;;5012412;28;20060;-58
2022/07/15 10:46:16;;;;;;;1.20;0.73;;;;;;;;;;5013158;28;20056;-58
2022/07/15 10:48:47;;;;;;;3.70;1.10;;;;;;;;;;5012782;28;20038;-51
2022/07/15 10:51:13;;;;;;;1.98;1.10;;;;;;;;;;5004898;28;20050;-58
2022/07/15 10:53:43;;;;;;;3.45;1.10;;;;;;;;;;4993472;28;20117;-54
2022/07/15 10:56:30;;;;;;;1.85;1.00;;;;;;;;;;4993321;28;20023;-58
2022/07/15 10:59:15;;;;;;;1.98;1.05;;;;;;;;;;4992106;28;20513;-58
2022/07/15 11:01:43;;;;;;;1.27;1.10;;;;;;;;;;4987468;28;20379;-52
2022/07/15 11:04:12;;;;;;;1.92;1.02;;;;;;;;;;4993195;28;20026;-56
2022/07/15 11:06:58;;;;;;;3.05;0.90;;;;;;;;;;4992789;28;20045;-58
2022/07/15 11:09:43;;;;;;;1.10;0.80;;;;;;;;;;4979606;28;20090;-58
2022/07/15 11:12:10;;;;;;;1.63;0.90;;;;;;;;;;4988204;28;20360;-57
2022/07/15 11:14:45;;;;;;;1.88;1.00;;;;;;;;;;4993388;28;20037;-58
2022/07/15 11:17:12;;;;;;;6.20;1.33;;;;;;;;;;4991613;28;20027;-58
2022/07/15 11:19:38;;;;;;;2.85;1.20;;;;;;;;;;4992550;28;20041;-59
2022/07/15 11:22:04;;;;;;;2.42;1.10;;;;;;;;;;4992567;28;20201;-58
2022/07/15 11:24:31;;;;;;;2.08;0.98;;;;;;;;;;4992477;28;20099;-58
2022/07/15 11:27:00;;;;;;;1.88;1.00;;;;;;;;;;4992180;28;20041;-58
2022/07/15 11:29:26;;;;;;;1.90;1.15;;;;;;;;;;4993325;28;20034;-58
2022/07/15 11:31:52;;;;;;;3.50;1.15;;;;;;;;;;4991868;28;20030;-58
2022/07/15 11:34:18;;;;;;;1.00;0.90;;;;;;;;;;4990511;28;20740;-58
2022/07/15 11:36:44;;;;;;;3.17;1.17;;;;;;;;;;4991621;28;20105;-52
2022/07/15 11:39:11;;;;;;;1.77;1.00;;;;;;;;;;4992595;28;20075;-58
2022/07/15 11:44:32;;;;;;;1.85;1.00;;;;;;;;;;4992054;28;20506;-58
2022/07/15 11:46:58;;;;;;;5.50;1.10;;;;;;;;;;4991831;28;20034;-58
2022/07/15 11:49:28;;;;;;;3.10;0.85;;;;;;;;;;4992509;28;20034;-58
2022/07/15 11:51:54;;;;;;;0.90;0.80;;;;;;;;;;4987497;28;20055;-57
2022/07/15 11:54:20;;;;;;;1.45;0.90;;;;;;;;;;4987423;28;20434;-58
2022/07/15 11:56:53;;;;;;;3.70;1.17;;;;;;;;;;4990384;28;20037;-54
2022/07/15 11:59:19;;;;;;;2.15;1.20;;;;;;;;;;4992127;28;20026;-58
2022/07/15 12:01:45;;;;;;;2.05;1.20;;;;;;;;;;4991649;28;20468;-52
2022/07/15 12:04:11;;;;;;;3.38;1.10;;;;;;;;;;4991454;28;20038;-54
2022/07/15 12:06:37;;;;;;;1.95;1.17;;;;;;;;;;4986962;28;20030;-57
2022/07/15 12:09:07;;;;;;;3.28;0.93;;;;;;;;;;4987997;28;20064;-58
2022/07/15 12:11:36;;;;;;;2.35;0.93;;;;;;;;;;4997877;28;20494;-58
2022/07/15 12:14:04;;;;;;;3.72;2.35;;;;;;;;;;4989530;28;20038;-58
2022/07/15 12:16:34;;;;;;;1.83;1.20;;;;;;;;;;4992196;28;20058;-57
2022/07/15 12:19:02;;;;;;;1.90;1.13;;;;;;;;;;4990628;28;20496;-57
2022/07/15 12:21:28;;;;;;;3.45;1.05;;;;;;;;;;4991962;28;20038;-58
2022/07/15 12:23:58;;;;;;;1.48;1.23;;;;;;;;;;4991215;28;20077;-57
2022/07/15 12:26:24;;;;;;;1.27;1.00;;;;;;;;;;4989843;28;20416;-58
2022/07/15 12:28:57;;;;;;;5.03;1.38;;;;;;;;;;4990662;28;20391;-56
2022/07/15 12:31:28;;;;;;;3.22;1.10;;;;;;;;;;4991988;28;20077;-57
2022/07/15 12:33:54;;;;;;;1.55;1.20;;;;;;;;;;4985552;28;20030;-58
2022/07/15 12:36:22;;;;;;;2.50;1.23;;;;;;;;;;4992014;28;20037;-57
2022/07/15 12:39:08;;;;;;;1.88;0.80;;;;;;;;;;4991470;28;20076;-57
2022/07/15 12:41:34;;;;;;;2.63;1.25;;;;;;;;;;4993398;28;20054;-57
2022/07/15 12:44:04;;;;;;;1.50;1.10;;;;;;;;;;4990843;28;20023;-58
2022/07/15 12:46:49;;;;;;;1.40;0.98;;;;;;;;;;4988502;28;20026;-58
2022/07/15 12:49:34;;;;;;;1.35;1.10;;;;;;;;;;4990064;28;20030;-58
2022/07/15 12:52:11;;;;;;;2.67;1.00;;;;;;;;;;5003372;28;20056;-57
2022/07/15 12:54:37;;;;;;;2.30;1.10;;;;;;;;;;5008278;28;20454;-58
2022/07/15 12:57:03;;;;;;;1.80;1.10;;;;;;;;;;5010931;28;20058;-57
2022/07/15 12:59:29;;;;;;;3.03;0.95;;;;;;;;;;5010743;28;20057;-56
2022/07/15 13:02:02;;;;;;;1.77;1.20;;;;;;;;;;5007731;28;20068;-58
2022/07/15 13:04:28;;;;;;;1.95;1.10;;;;;;;;;;5010938;28;20057;-58
2022/07/15 13:06:54;;;;;;;1.20;0.90;;;;;;;;;;5014059;28;20029;-56
2022/07/15 13:09:20;;;;;;;1.60;1.15;;;;;;;;;;5015305;28;20041;-57
2022/07/15 13:11:57;;;;;;;1.42;0.95;;;;;;;;;;5012310;28;20143;-53
2022/07/15 13:14:23;;;;;;;1.15;1.00;;;;;;;;;;5015301;28;20026;-57
2022/07/15 13:16:49;;;;;;;1.45;0.98;;;;;;;;;;5014742;28;20485;-57
2022/07/15 13:19:14;;;;;;;3.80;1.13;;;;;;;;;;5015008;28;20100;-57
2022/07/15 13:21:40;;;;;;;1.27;1.00;;;;;;;;;;5015284;28;20038;-57
2022/07/15 13:24:06;;;;;;;1.63;1.00;;;;;;;;;;5013482;28;20025;-57
2022/07/15 13:26:32;;;;;;;1.23;0.90;;;;;;;;;;5014171;28;20474;-58
2022/07/15 13:28:58;;;;;;;1.48;0.93;;;;;;;;;;5013800;28;20041;-57
2022/07/15 13:31:24;;;;;;;1.80;1.20;;;;;;;;;;5014487;28;20029;-60
2022/07/15 13:33:50;;;;;;;1.95;1.00;;;;;;;;;;5012402;28;20037;-55
2022/07/15 13:36:16;;;;;;;1.90;1.00;;;;;;;;;;5013683;28;20437;-58
2022/07/15 13:38:42;;;;;;;3.10;1.75;;;;;;;;;;5014731;28;20044;-55
2022/07/15 13:41:08;;;;;;;2.20;1.10;;;;;;;;;;5012813;28;20160;-57
2022/07/15 13:43:34;;;;;;;1.40;0.90;;;;;;;;;;5014486;28;20463;-58
2022/07/15 13:46:00;;;;;;;1.30;0.90;;;;;;;;;;5013553;28;20029;-59
2022/07/15 13:48:26;;;;;;;0.90;0.80;;;;;;;;;;5014134;28;20356;-59
2022/07/15 13:53:37;;;;;;;1.33;1.00;;;;;;;;;;4992169;28;20045;-57
2022/07/15 13:56:03;;;;;;;2.85;1.05;;;;;;;;;;4993697;28;20388;-58
2022/07/15 13:58:29;;;;;;;1.02;0.80;;;;;;;;;;4988961;28;20041;-58
2022/07/15 14:00:55;;;;;;;2.28;0.90;;;;;;;;;;4989853;28;20030;-58
2022/07/15 14:03:21;;;;;;;1.42;1.00;;;;;;;;;;4989153;28;20034;-59
2022/07/15 14:05:47;;;;;;;1.60;1.30;;;;;;;;;;4993785;28;20108;-58
2022/07/15 14:08:13;;;;;;;2.60;1.23;;;;;;;;;;4992620;28;20026;-57
2022/07/15 14:10:39;;;;;;;1.17;0.85;;;;;;;;;;4989684;28;20105;-57
2022/07/15 14:13:05;;;;;;;1.65;1.05;;;;;;;;;;4993671;28;20034;-58
2022/07/15 14:15:31;;;;;;;1.30;1.02;;;;;;;;;;4993671;28;20032;-57
2022/07/15 14:17:57;;;;;;;2.33;1.23;;;;;;;;;;4988421;28;20484;-58
2022/07/15 14:20:23;;;;;;;2.95;1.00;;;;;;;;;;4990646;28;20026;-58
2022/07/15 14:22:50;;;;;;;1.27;0.90;;;;;;;;;;4991310;28;20037;-51
2022/07/15 14:25:16;;;;;;;1.02;0.80;;;;;;;;;;4985435;28;20037;-57
2022/07/15 14:27:42;;;;;;;2.10;0.90;;;;;;;;;;4989826;28;20106;-57
2022/07/15 14:30:09;;;;;;;3.88;1.20;;;;;;;;;;4990500;28;20543;-57
2022/07/15 14:32:35;;;;;;;4.70;1.23;;;;;;;;;;4985996;28;20456;-57
2022/07/15 14:35:01;;;;;;;2.38;1.20;;;;;;;;;;4984547;28;20027;-57
2022/07/15 14:37:27;;;;;;;3.05;1.23;;;;;;;;;;4988278;28;20034;-58
2022/07/15 14:39:53;;;;;;;3.13;0.98;;;;;;;;;;4990332;28;20121;-51
2022/07/15 14:42:19;;;;;;;2.15;1.50;;;;;;;;;;4984316;28;20068;-58
2022/07/15 14:44:46;;;;;;;3.17;1.15;;;;;;;;;;4988084;28;20567;-58
2022/07/15 14:47:12;;;;;;;3.38;1.50;;;;;;;;;;4988274;28;20593;-58
2022/07/15 14:49:38;;;;;;;3.38;1.10;;;;;;;;;;4986953;28;20077;-54
2022/07/15 14:52:04;;;;;;;2.15;1.10;;;;;;;;;;4987801;28;20089;-58
2022/07/15 14:54:30;;;;;;;4.38;1.65;;;;;;;;;;4988396;28;20093;-58
2022/07/15 14:56:57;;;;;;;1.77;1.05;;;;;;;;;;4985749;28;20019;-54